Terminal Aerodrome Forecast
Issued by NWS Sioux Falls, SD

Home | Current Version | Previous Version | Text Only | Print | Product List | Glossary On
Versions: 1 2 3 4 5 6 7 8 9 10 11 12 13 14
000
FTUS43 KFSD 291720
TAFHON
TAF
KHON 291720Z 2918/3018 01018G25KT P6SM OVC015
     FM300000 36014G20KT P6SM SCT025
     FM300200 36012KT P6SM FEW030
     FM300800 36007KT P6SM SKC
     FM301500 03010KT P6SM SKC
      AMD NOT SKED=

USA.gov is the U.S. government's official web portal to all federal, state and local government web resources and services.